Time;durP1;ratioP1;P1;durP2;ratioP2;P2;SDS_P1;SDS_P2;PMS_P1;PMS_P2;Temp;Humidity;BMP_temperature;BMP_pressure;BME280_temperature;BME280_humidity;BME280_pressure;Samples;Min_cycle;Max_cycle;Signal;HPM_P1;HPM_P2
2022/04/26 03:38:36;;;;;;;;;;;6.80;99.90;;;;;;5056820;28;20241;-76
2022/04/26 03:41:02;;;;;;;;;;;6.80;99.90;;;;;;5066778;28;20427;-76
2022/04/26 03:43:29;;;;;;;;;;;6.80;99.90;;;;;;5066516;28;20295;-76
2022/04/26 03:45:58;;;;;;;;;;;6.80;99.90;;;;;;5056695;28;19924;-76
2022/04/26 03:48:25;;;;;;;;;;;6.80;99.90;;;;;;5066660;28;19924;-76
2022/04/26 03:50:52;;;;;;;;;;;6.80;99.90;;;;;;5067912;28;19934;-75
2022/04/26 03:53:18;;;;;;;;;;;6.80;99.90;;;;;;5064878;28;20593;-74
2022/04/26 03:55:45;;;;;;;;;;;6.90;99.90;;;;;;5065193;28;19924;-75
2022/04/26 03:58:12;;;;;;;;;;;6.90;99.90;;;;;;5064934;28;20015;-75
2022/04/26 04:00:38;;;;;;;;;;;6.90;99.90;;;;;;5062802;28;19925;-75
2022/04/26 04:03:05;;;;;;;;;;;6.90;99.90;;;;;;5065511;28;19980;-75
2022/04/26 04:05:32;;;;;;;;;;;6.90;99.90;;;;;;5064249;28;19933;-75
2022/04/26 04:07:58;;;;;;;;;;;6.90;99.90;;;;;;5067071;28;20022;-75
2022/04/26 04:10:28;;;;;;;;;;;6.90;99.90;;;;;;5066133;28;20382;-75
2022/04/26 04:12:55;;;;;;;;;;;6.90;99.90;;;;;;5066492;28;19933;-75
2022/04/26 04:15:21;;;;;;;;;;;6.90;99.90;;;;;;5064727;28;19932;-75
2022/04/26 04:17:48;;;;;;;;;;;6.90;99.90;;;;;;5066362;28;19932;-75
2022/04/26 04:20:15;;;;;;;;;;;6.90;99.90;;;;;;5064601;28;19930;-76
2022/04/26 04:22:42;;;;;;;;;;;6.90;99.90;;;;;;5073502;28;20348;-76
2022/04/26 04:25:08;;;;;;;;;;;6.90;99.90;;;;;;5063668;28;19928;-76
2022/04/26 04:27:35;;;;;;;;;;;6.90;99.90;;;;;;5067621;28;19925;-76
2022/04/26 04:30:03;;;;;;;;;;;6.90;99.90;;;;;;5070197;28;19924;-76
2022/04/26 04:32:29;;;;;;;;;;;7.00;99.90;;;;;;5071912;28;20406;-76
2022/04/26 04:34:58;;;;;;;;;;;7.00;99.90;;;;;;5063757;28;20094;-76
2022/04/26 04:37:25;;;;;;;;;;;7.10;99.90;;;;;;5064136;28;19967;-77
2022/04/26 04:39:52;;;;;;;;;;;7.10;99.90;;;;;;5069899;28;20401;-77
2022/04/26 04:42:20;;;;;;;;;;;7.10;99.90;;;;;;5069584;28;19928;-77
2022/04/26 04:44:47;;;;;;;;;;;7.00;99.90;;;;;;5059074;28;19928;-75
2022/04/26 04:47:14;;;;;;;;;;;7.00;99.90;;;;;;5060721;28;20299;-75
2022/04/26 04:49:40;;;;;;;;;;;7.10;99.90;;;;;;5061056;28;19925;-75
2022/04/26 04:52:07;;;;;;;;;;;7.00;99.90;;;;;;5066801;28;19928;-75
2022/04/26 04:54:34;;;;;;;;;;;7.00;99.90;;;;;;5066082;28;19955;-75
2022/04/26 04:57:02;;;;;;;;;;;7.00;99.90;;;;;;5065816;28;20268;-76
2022/04/26 04:59:29;;;;;;;;;;;7.00;99.90;;;;;;5062604;28;19931;-75
2022/04/26 05:01:56;;;;;;;;;;;7.00;99.90;;;;;;5067378;28;19925;-75
2022/04/26 05:04:23;;;;;;;;;;;7.00;99.90;;;;;;5062572;28;20375;-75
2022/04/26 05:06:52;;;;;;;;;;;7.00;99.90;;;;;;5061941;28;19933;-75
2022/04/26 05:09:18;;;;;;;;;;;7.00;99.90;;;;;;5064847;28;19950;-76
2022/04/26 05:11:45;;;;;;;;;;;7.00;99.90;;;;;;5054055;28;20308;-76
2022/04/26 05:14:12;;;;;;;;;;;7.00;99.90;;;;;;5061659;28;19975;-75
2022/04/26 05:16:38;;;;;;;;;;;7.00;99.90;;;;;;5062176;28;20375;-75
2022/04/26 05:19:05;;;;;;;;;;;7.00;99.90;;;;;;5066520;28;19943;-75
2022/04/26 05:21:32;;;;;;;;;;;7.00;99.90;;;;;;5068641;28;20339;-75
2022/04/26 05:26:44;;;;;;;;;;;7.10;99.90;;;;;;5064680;28;19933;-75
2022/04/26 05:29:17;;;;;;;;;;;7.10;99.90;;;;;;5063063;28;20181;-75
2022/04/26 05:31:44;;;;;;;;;;;7.10;99.90;;;;;;5062678;28;19924;-75
2022/04/26 05:34:10;;;;;;;;;;;7.10;99.90;;;;;;5066620;28;19924;-75
2022/04/26 05:36:37;;;;;;;;;;;7.10;99.90;;;;;;5065919;28;20766;-75
2022/04/26 05:39:04;;;;;;;;;;;7.20;99.90;;;;;;5065739;28;20288;-75
2022/04/26 05:41:30;;;;;;;;;;;7.20;99.90;;;;;;5064915;28;19933;-75
2022/04/26 05:43:57;;;;;;;;;;;7.20;99.90;;;;;;5067601;28;20480;-74
2022/04/26 05:46:24;;;;;;;;;;;7.20;99.90;;;;;;5065750;28;19924;-75
2022/04/26 05:48:50;;;;;;;;;;;7.30;99.90;;;;;;5062668;28;19932;-75
2022/04/26 05:51:17;;;;;;;;;;;7.30;99.90;;;;;;5066792;28;20403;-75
2022/04/26 05:53:44;;;;;;;;;;;7.30;99.90;;;;;;5068048;28;19925;-74
2022/04/26 05:56:12;;;;;;;;;;;7.40;99.90;;;;;;5063922;28;19932;-75
2022/04/26 05:58:46;;;;;;;;;;;7.50;99.90;;;;;;5058262;28;19932;-74
2022/04/26 06:01:12;;;;;;;;;;;7.50;99.90;;;;;;5063500;28;19964;-75
2022/04/26 06:03:39;;;;;;;;;;;7.60;99.90;;;;;;5053634;28;19932;-74
2022/04/26 06:06:05;;;;;;;;;;;7.60;99.90;;;;;;5059949;28;20296;-75
2022/04/26 06:08:32;;;;;;;;;;;7.60;99.90;;;;;;5063280;28;19924;-75
2022/04/26 06:10:59;;;;;;;;;;;7.60;99.90;;;;;;5062600;28;19924;-75
2022/04/26 06:13:25;;;;;;;;;;;7.70;99.90;;;;;;5061154;28;20394;-74
2022/04/26 06:15:52;;;;;;;;;;;7.70;99.90;;;;;;5063144;28;19924;-74
2022/04/26 06:18:19;;;;;;;;;;;7.60;99.90;;;;;;5065318;28;20334;-75
2022/04/26 06:20:46;;;;;;;;;;;7.60;99.90;;;;;;5057675;28;19943;-75
2022/04/26 06:23:12;;;;;;;;;;;7.70;99.90;;;;;;5058811;28;19925;-75
2022/04/26 06:25:39;;;;;;;;;;;7.80;99.90;;;;;;5059348;28;19939;-75
2022/04/26 06:28:07;;;;;;;;;;;7.80;99.90;;;;;;5062500;28;19932;-75
2022/04/26 06:30:35;;;;;;;;;;;7.70;99.90;;;;;;5092595;27;19928;-75
2022/04/26 06:33:02;;;;;;;;;;;7.70;99.90;;;;;;5060407;28;20038;-75
2022/04/26 06:35:28;;;;;;;;;;;7.70;99.90;;;;;;5053090;28;19933;-75
2022/04/26 06:37:55;;;;;;;;;;;7.60;99.90;;;;;;5059160;28;20311;-75
2022/04/26 06:40:22;;;;;;;;;;;7.70;99.90;;;;;;5060423;28;20291;-75
2022/04/26 06:42:48;;;;;;;;;;;7.70;99.90;;;;;;5064017;28;20454;-75
2022/04/26 06:45:15;;;;;;;;;;;7.60;99.90;;;;;;5054258;28;20719;-75
2022/04/26 06:47:43;;;;;;;;;;;7.70;99.90;;;;;;5058600;28;19935;-74
2022/04/26 06:50:10;;;;;;;;;;;7.90;99.90;;;;;;5060030;28;19924;-75
2022/04/26 06:52:37;;;;;;;;;;;8.00;99.90;;;;;;5056142;28;19928;-75
2022/04/26 06:55:06;;;;;;;;;;;8.10;99.90;;;;;;5064572;28;19978;-75
2022/04/26 06:57:36;;;;;;;;;;;8.10;99.90;;;;;;5060652;28;20377;-75
2022/04/26 07:00:04;;;;;;;;;;;8.00;99.90;;;;;;5061835;28;20383;-76
2022/04/26 07:02:30;;;;;;;;;;;8.10;99.90;;;;;;5062851;28;19929;-75
2022/04/26 07:04:57;;;;;;;;;;;8.10;99.90;;;;;;5059758;28;19931;-76
2022/04/26 07:07:24;;;;;;;;;;;8.20;99.90;;;;;;5061025;28;20382;-76
2022/04/26 07:09:51;;;;;;;;;;;8.10;99.90;;;;;;5057377;28;19933;-75
2022/04/26 07:12:17;;;;;;;;;;;8.10;99.90;;;;;;5087458;27;20220;-75
2022/04/26 07:14:47;;;;;;;;;;;8.10;99.90;;;;;;5057859;28;19932;-76
2022/04/26 07:17:17;;;;;;;;;;;8.10;99.90;;;;;;5060532;28;19931;-75
2022/04/26 07:19:43;;;;;;;;;;;8.10;99.90;;;;;;5062603;28;19925;-75
2022/04/26 07:22:25;;;;;;;;;;;8.20;99.90;;;;;;5067583;28;19964;-75
2022/04/26 07:24:52;;;;;;;;;;;8.20;99.90;;;;;;5061919;28;19932;-75
2022/04/26 07:27:22;;;;;;;;;;;8.30;99.90;;;;;;5061119;28;20406;-75
2022/04/26 07:29:49;;;;;;;;;;;8.20;99.90;;;;;;5062891;28;19960;-75
2022/04/26 07:32:16;;;;;;;;;;;8.20;99.90;;;;;;5059104;28;19963;-75
2022/04/26 07:34:42;;;;;;;;;;;8.20;99.90;;;;;;5072542;28;19924;-75
2022/04/26 07:37:09;;;;;;;;;;;8.20;99.90;;;;;;5069712;28;19924;-76
2022/04/26 07:39:36;;;;;;;;;;;8.30;99.90;;;;;;5067497;28;19928;-75
2022/04/26 07:42:04;;;;;;;;;;;8.40;99.90;;;;;;5069106;28;20003;-75
2022/04/26 07:44:31;;;;;;;;;;;8.60;99.90;;;;;;5060594;28;20015;-76
2022/04/26 07:46:58;;;;;;;;;;;8.80;99.90;;;;;;5064996;28;19947;-76
2022/04/26 07:49:28;;;;;;;;;;;8.90;99.90;;;;;;5067795;28;19924;-75
2022/04/26 07:51:54;;;;;;;;;;;9.00;99.90;;;;;;5059115;28;19954;-75
2022/04/26 07:54:21;;;;;;;;;;;9.30;99.90;;;;;;5057902;28;19924;-76
2022/04/26 07:56:48;;;;;;;;;;;9.60;99.90;;;;;;5059523;28;19924;-76
2022/04/26 07:59:14;;;;;;;;;;;9.80;99.90;;;;;;5061987;28;19929;-75
2022/04/26 08:01:44;;;;;;;;;;;9.80;99.90;;;;;;5063576;28;19925;-76
2022/04/26 08:04:11;;;;;;;;;;;10.00;99.90;;;;;;5051814;28;19932;-76
2022/04/26 08:06:42;;;;;;;;;;;10.20;99.90;;;;;;5061868;28;20228;-76
2022/04/26 08:09:09;;;;;;;;;;;10.30;99.90;;;;;;5064811;28;19933;-76
2022/04/26 08:11:36;;;;;;;;;;;10.60;99.90;;;;;;5059753;28;19936;-75
2022/04/26 08:14:03;;;;;;;;;;;10.70;99.90;;;;;;5059286;28;20527;-75
2022/04/26 08:16:29;;;;;;;;;;;10.70;99.90;;;;;;5062145;28;20128;-76
2022/04/26 08:18:56;;;;;;;;;;;10.70;99.90;;;;;;5062508;28;19950;-76
2022/04/26 08:21:36;;;;;;;;;;;10.60;99.90;;;;;;5067859;28;19924;-76
2022/04/26 08:29:34;;;;;;;;;;;10.10;99.90;;;;;;5063094;28;20023;-76
2022/04/26 08:32:05;;;;;;;;;;;9.90;99.90;;;;;;5081793;28;19938;-77
2022/04/26 08:34:32;;;;;;;;;;;9.80;99.90;;;;;;5063899;28;20070;-76
2022/04/26 08:37:02;;;;;;;;;;;9.80;99.90;;;;;;5060690;28;20108;-76
2022/04/26 08:39:28;;;;;;;;;;;9.70;99.90;;;;;;5061001;28;19929;-76
2022/04/26 08:41:56;;;;;;;;;;;9.50;99.90;;;;;;5056747;28;20442;-76
2022/04/26 08:44:27;;;;;;;;;;;9.50;99.90;;;;;;5052004;28;20294;-75
2022/04/26 08:52:25;;;;;;;;;;;9.30;99.90;;;;;;5064687;28;19928;-76
2022/04/26 08:54:51;;;;;;;;;;;9.40;99.90;;;;;;5067044;28;20035;-76
2022/04/26 08:57:18;;;;;;;;;;;9.40;99.90;;;;;;5067210;28;20315;-76
2022/04/26 08:59:48;;;;;;;;;;;9.50;99.90;;;;;;5068475;28;19925;-76
2022/04/26 09:02:18;;;;;;;;;;;9.70;99.90;;;;;;5056435;28;20270;-76
2022/04/26 09:04:45;;;;;;;;;;;9.70;99.90;;;;;;5067131;28;20431;-76
2022/04/26 09:07:26;;;;;;;;;;;9.80;99.90;;;;;;5067114;28;19925;-77
2022/04/26 09:10:02;;;;;;;;;;;9.90;99.90;;;;;;5065693;28;20290;-77
2022/04/26 09:12:29;;;;;;;;;;;9.80;99.90;;;;;;5063332;28;19928;-77
2022/04/26 09:14:55;;;;;;;;;;;10.00;99.90;;;;;;5069194;28;19925;-77
2022/04/26 09:17:22;;;;;;;;;;;10.10;99.90;;;;;;5070021;28;19934;-74
2022/04/26 09:19:54;;;;;;;;;;;10.10;99.90;;;;;;5067834;28;20294;-75
2022/04/26 09:22:25;;;;;;;;;;;10.20;99.90;;;;;;5066635;28;19970;-75
2022/04/26 09:24:52;;;;;;;;;;;10.20;99.90;;;;;;5070719;28;21592;-75
2022/04/26 09:27:20;;;;;;;;;;;10.50;99.90;;;;;;5067280;28;19936;-76
2022/04/26 09:29:47;;;;;;;;;;;10.80;99.90;;;;;;5068494;28;20030;-76
2022/04/26 09:32:16;;;;;;;;;;;11.00;99.90;;;;;;5068297;28;19932;-76
2022/04/26 09:34:43;;;;;;;;;;;11.50;99.90;;;;;;5070054;28;20521;-76
2022/04/26 09:37:12;;;;;;;;;;;12.10;99.90;;;;;;5063868;28;19928;-75
2022/04/26 09:39:44;;;;;;;;;;;12.20;99.90;;;;;;5059826;28;19938;-76
2022/04/26 09:42:31;;;;;;;;;;;12.60;99.90;;;;;;5066528;28;20359;-76
2022/04/26 09:45:08;;;;;;;;;;;12.80;99.90;;;;;;5069722;28;19940;-77
2022/04/26 09:47:35;;;;;;;;;;;13.00;99.90;;;;;;5069822;28;19924;-77
2022/04/26 09:50:06;;;;;;;;;;;13.20;99.90;;;;;;5069147;28;20045;-76
2022/04/26 09:52:32;;;;;;;;;;;13.30;99.90;;;;;;5066009;28;19928;-77
2022/04/26 09:55:00;;;;;;;;;;;13.20;99.90;;;;;;5069294;28;19932;-76
2022/04/26 09:57:31;;;;;;;;;;;13.30;99.90;;;;;;5068675;28;20020;-77
2022/04/26 10:00:09;;;;;;;;;;;13.20;99.90;;;;;;5068136;28;19932;-76
2022/04/26 10:02:38;;;;;;;;;;;13.10;99.90;;;;;;5066243;28;20016;-75
2022/04/26 10:05:05;;;;;;;;;;;12.80;99.90;;;;;;5059493;28;19924;-76
2022/04/26 10:07:34;;;;;;;;;;;12.50;99.90;;;;;;5073986;28;19966;-75
2022/04/26 10:10:01;;;;;;;;;;;12.30;99.90;;;;;;5069797;28;20326;-76
2022/04/26 10:12:29;;;;;;;;;;;12.30;99.90;;;;;;5068878;28;19924;-75
2022/04/26 10:14:56;;;;;;;;;;;12.40;99.90;;;;;;5064308;28;19948;-75
2022/04/26 10:17:23;;;;;;;;;;;12.70;99.90;;;;;;5068780;28;19925;-75
2022/04/26 10:19:50;;;;;;;;;;;12.90;99.90;;;;;;5068226;28;19939;-75
2022/04/26 10:22:43;;;;;;;;;;;13.00;99.90;;;;;;5068646;28;19968;-76
2022/04/26 10:25:12;;;;;;;;;;;13.40;99.90;;;;;;5060870;28;19928;-75
2022/04/26 10:27:39;;;;;;;;;;;13.70;99.90;;;;;;5063570;28;19924;-75
2022/04/26 10:30:09;;;;;;;;;;;14.20;99.90;;;;;;5065887;28;19932;-75
2022/04/26 10:32:38;;;;;;;;;;;14.60;99.90;;;;;;5064460;28;19928;-75
2022/04/26 10:35:23;;;;;;;;;;;14.70;99.90;;;;;;5058174;28;20401;-76
2022/04/26 10:38:09;;;;;;;;;;;14.80;99.90;;;;;;5081398;28;20344;-75
2022/04/26 10:40:56;;;;;;;;;;;15.10;99.90;;;;;;5065558;28;19924;-75
2022/04/26 10:43:22;;;;;;;;;;;14.90;99.90;;;;;;5056134;28;19924;-75
2022/04/26 10:46:07;;;;;;;;;;;15.10;99.90;;;;;;5059479;28;19939;-75
2022/04/26 10:48:34;;;;;;;;;;;15.00;99.90;;;;;;5094263;28;19948;-75
2022/04/26 10:51:19;;;;;;;;;;;15.00;99.90;;;;;;5067906;28;19938;-75
2022/04/26 10:53:46;;;;;;;;;;;14.50;99.90;;;;;;5069502;28;19925;-75
2022/04/26 10:56:13;;;;;;;;;;;13.70;99.90;;;;;;5060730;28;19925;-75
2022/04/26 10:58:49;;;;;;;;;;;13.30;99.90;;;;;;5065647;28;20128;-75
2022/04/26 11:01:22;;;;;;;;;;;12.70;99.90;;;;;;5063297;28;19925;-75
2022/04/26 11:03:52;;;;;;;;;;;12.20;99.90;;;;;;5067466;28;19929;-75
2022/04/26 11:06:36;;;;;;;;;;;12.10;99.90;;;;;;5097883;28;20407;-75
2022/04/26 11:09:06;;;;;;;;;;;11.90;99.90;;;;;;5056385;28;19951;-75
2022/04/26 11:11:46;;;;;;;;;;;11.80;99.90;;;;;;5063977;28;19939;-75
2022/04/26 11:14:20;;;;;;;;;;;11.90;99.90;;;;;;5061544;28;19925;-75
2022/04/26 11:16:57;;;;;;;;;;;12.20;99.90;;;;;;5065919;28;19924;-75
2022/04/26 11:19:25;;;;;;;;;;;12.10;99.90;;;;;;5062162;28;20409;-75
2022/04/26 11:21:51;;;;;;;;;;;12.10;99.90;;;;;;5067897;28;20290;-75
2022/04/26 11:29:53;;;;;;;;;;;11.10;99.90;;;;;;5063074;28;19928;-74
2022/04/26 11:32:32;;;;;;;;;;;10.90;99.90;;;;;;5067053;28;19968;-75
2022/04/26 11:34:59;;;;;;;;;;;10.70;99.90;;;;;;5065918;28;19935;-75
2022/04/26 11:37:28;;;;;;;;;;;10.50;99.90;;;;;;5055099;28;19931;-75
2022/04/26 11:39:54;;;;;;;;;;;10.50;99.90;;;;;;5060368;28;19924;-76
2022/04/26 11:42:21;;;;;;;;;;;10.60;99.90;;;;;;5058558;28;19931;-75
2022/04/26 11:44:56;;;;;;;;;;;10.90;99.90;;;;;;5057301;28;20039;-75
2022/04/26 11:47:36;;;;;;;;;;;11.30;99.90;;;;;;5066151;28;19936;-75
2022/04/26 11:50:09;;;;;;;;;;;11.70;99.90;;;;;;5069093;28;19931;-75
2022/04/26 11:52:37;;;;;;;;;;;11.90;99.90;;;;;;5081341;28;20421;-75
2022/04/26 11:55:04;;;;;;;;;;;11.90;99.90;;;;;;5072962;28;20322;-75
2022/04/26 11:57:32;;;;;;;;;;;12.00;99.90;;;;;;5072634;28;19946;-75
2022/04/26 11:59:59;;;;;;;;;;;11.80;99.90;;;;;;5065158;28;19930;-75
2022/04/26 12:02:26;;;;;;;;;;;11.40;99.90;;;;;;5059211;28;19940;-74
2022/04/26 12:04:53;;;;;;;;;;;11.10;99.90;;;;;;5061118;28;19970;-75
2022/04/26 12:07:20;;;;;;;;;;;10.70;99.90;;;;;;5071972;28;19928;-75
2022/04/26 12:09:47;;;;;;;;;;;10.40;99.90;;;;;;5070491;28;20299;-75
2022/04/26 12:12:14;;;;;;;;;;;10.10;99.90;;;;;;5070209;28;19924;-75
2022/04/26 12:14:41;;;;;;;;;;;9.80;99.90;;;;;;5056432;28;19932;-75
2022/04/26 12:17:18;;;;;;;;;;;9.60;99.90;;;;;;5060347;28;19924;-74
2022/04/26 12:19:50;;;;;;;;;;;9.40;99.90;;;;;;5057978;28;19951;-74
2022/04/26 12:22:18;;;;;;;;;;;9.30;99.90;;;;;;5062640;28;20054;-75
2022/04/26 12:24:45;;;;;;;;;;;9.20;99.90;;;;;;5057029;28;19929;-74
2022/04/26 12:27:13;;;;;;;;;;;9.30;99.90;;;;;;5055919;28;20304;-74
2022/04/26 12:29:41;;;;;;;;;;;9.40;99.90;;;;;;5058950;28;19928;-74
2022/04/26 12:32:10;;;;;;;;;;;9.60;99.90;;;;;;5064502;28;19925;-75
2022/04/26 12:34:46;;;;;;;;;;;9.70;99.90;;;;;;5066446;28;19924;-75
2022/04/26 12:37:23;;;;;;;;;;;9.60;99.90;;;;;;5064569;28;19935;-75
2022/04/26 12:39:50;;;;;;;;;;;9.40;99.90;;;;;;5065496;28;19931;-75
2022/04/26 12:42:29;;;;;;;;;;;9.40;99.90;;;;;;5065819;28;20376;-75
2022/04/26 12:45:00;;;;;;;;;;;9.40;99.90;;;;;;5066580;28;19924;-75
2022/04/26 12:50:31;;;;;;;;;;;9.60;99.90;;;;;;5063771;28;19931;-73
2022/04/26 12:53:02;;;;;;;;;;;9.70;99.90;;;;;;5066651;28;19924;-76
2022/04/26 12:55:30;;;;;;;;;;;10.00;99.90;;;;;;5067946;28;19924;-76
2022/04/26 12:58:01;;;;;;;;;;;10.20;99.90;;;;;;5067172;28;20024;-75
2022/04/26 13:00:29;;;;;;;;;;;10.50;99.90;;;;;;5066360;28;19929;-75
2022/04/26 13:02:57;;;;;;;;;;;10.70;99.90;;;;;;5068087;28;20314;-75
2022/04/26 13:05:44;;;;;;;;;;;11.00;99.90;;;;;;5067952;28;19931;-75
2022/04/26 13:08:12;;;;;;;;;;;11.00;99.90;;;;;;5097632;28;20000;-75
2022/04/26 13:10:40;;;;;;;;;;;11.00;99.90;;;;;;5067662;28;20011;-75
2022/04/26 13:13:08;;;;;;;;;;;10.90;99.90;;;;;;5068730;28;19933;-75
2022/04/26 13:15:34;;;;;;;;;;;10.80;99.90;;;;;;5068431;28;20390;-75
2022/04/26 13:18:03;;;;;;;;;;;10.60;99.90;;;;;;5067509;28;19928;-75
2022/04/26 13:20:30;;;;;;;;;;;10.50;99.90;;;;;;5067049;28;20411;-75
2022/04/26 13:22:57;;;;;;;;;;;10.30;99.90;;;;;;5068371;28;19982;-73
2022/04/26 13:25:24;;;;;;;;;;;10.30;99.90;;;;;;5069127;28;19934;-73
2022/04/26 13:27:53;;;;;;;;;;;10.30;99.90;;;;;;5067466;28;19928;-73
2022/04/26 13:30:20;;;;;;;;;;;10.50;99.90;;;;;;5067587;28;19959;-73
2022/04/26 13:32:48;;;;;;;;;;;10.50;99.90;;;;;;5068342;28;20240;-76
2022/04/26 13:35:17;;;;;;;;;;;10.60;99.90;;;;;;5069280;28;19924;-74
2022/04/26 13:37:46;;;;;;;;;;;10.50;99.90;;;;;;5067183;28;20280;-74
2022/04/26 13:40:12;;;;;;;;;;;10.60;99.90;;;;;;5061131;28;19924;-74
2022/04/26 13:42:39;;;;;;;;;;;10.60;99.90;;;;;;5067405;28;19932;-74
2022/04/26 13:45:06;;;;;;;;;;;10.70;99.90;;;;;;5066811;28;19939;-74
2022/04/26 13:47:34;;;;;;;;;;;10.80;99.90;;;;;;5068045;28;19931;-74
2022/04/26 13:50:01;;;;;;;;;;;10.90;99.90;;;;;;5068143;28;19928;-74
2022/04/26 13:52:28;;;;;;;;;;;11.10;99.90;;;;;;5065880;28;20049;-75
2022/04/26 13:54:54;;;;;;;;;;;11.30;99.90;;;;;;5068862;28;20391;-76
2022/04/26 13:57:21;;;;;;;;;;;11.30;99.90;;;;;;5076257;28;20028;-77
2022/04/26 13:59:48;;;;;;;;;;;11.40;99.90;;;;;;5066122;28;19931;-76
2022/04/26 14:02:14;;;;;;;;;;;11.50;99.90;;;;;;5068342;28;20378;-74
2022/04/26 14:04:42;;;;;;;;;;;11.40;99.90;;;;;;5068166;28;19958;-74
2022/04/26 14:07:09;;;;;;;;;;;11.50;99.90;;;;;;5097725;28;19974;-74
2022/04/26 14:09:35;;;;;;;;;;;11.60;99.90;;;;;;5067748;28;19925;-74
2022/04/26 14:12:03;;;;;;;;;;;11.70;99.90;;;;;;5066866;28;20081;-74
2022/04/26 14:22:46;;;;;;;;;;;12.30;99.90;;;;;;5064608;28;20379;-74
2022/04/26 14:25:13;;;;;;;;;;;12.20;99.90;;;;;;5051876;28;19924;-74
2022/04/26 14:27:42;;;;;;;;;;;11.80;99.90;;;;;;5069388;28;20053;-74
2022/04/26 14:30:12;;;;;;;;;;;11.70;99.90;;;;;;5068220;28;19956;-74
2022/04/26 14:32:59;;;;;;;;;;;11.50;99.90;;;;;;5067597;28;20304;-74
2022/04/26 14:35:28;;;;;;;;;;;11.40;99.90;;;;;;5066643;28;19924;-74
2022/04/26 14:37:58;;;;;;;;;;;11.40;99.90;;;;;;5060852;28;20387;-74
2022/04/26 14:40:25;;;;;;;;;;;11.40;99.90;;;;;;5060103;28;20280;-74
2022/04/26 14:42:54;;;;;;;;;;;11.30;99.90;;;;;;5067385;28;19932;-74
2022/04/26 14:45:21;;;;;;;;;;;11.20;99.90;;;;;;5062907;28;19928;-75
2022/04/26 14:47:49;;;;;;;;;;;11.00;99.90;;;;;;5064219;28;19928;-75
2022/04/26 14:50:18;;;;;;;;;;;10.80;99.90;;;;;;5060761;28;20410;-76
2022/04/26 14:52:45;;;;;;;;;;;10.70;99.90;;;;;;5065747;28;19932;-76
2022/04/26 14:55:11;;;;;;;;;;;10.30;99.90;;;;;;5066311;28;20121;-75
2022/04/26 14:57:38;;;;;;;;;;;10.10;99.90;;;;;;5061804;28;19925;-76
2022/04/26 15:00:06;;;;;;;;;;;9.80;99.90;;;;;;5066348;28;19947;-75
2022/04/26 15:02:38;;;;;;;;;;;9.70;99.90;;;;;;5067338;28;19953;-75
2022/04/26 15:05:08;;;;;;;;;;;9.50;99.90;;;;;;5065924;28;19928;-77
2022/04/26 15:10:21;;;;;;;;;;;9.40;99.90;;;;;;5067689;28;20279;-77
2022/04/26 15:18:20;;;;;;;;;;;9.60;99.90;;;;;;5063789;28;19929;-79
2022/04/26 15:20:50;;;;;;;;;;;9.70;99.90;;;;;;5066424;28;19924;-78
2022/04/26 15:23:18;;;;;;;;;;;9.80;99.90;;;;;;5060673;28;19954;-77
2022/04/26 15:25:50;;;;;;;;;;;9.90;99.90;;;;;;5058584;28;20076;-78
2022/04/26 15:28:18;;;;;;;;;;;9.90;99.90;;;;;;5053301;28;19951;-77
2022/04/26 15:30:45;;;;;;;;;;;10.00;99.90;;;;;;5054463;28;19925;-77
2022/04/26 15:33:12;;;;;;;;;;;10.00;99.90;;;;;;5080085;28;19929;-78
2022/04/26 15:35:39;;;;;;;;;;;10.10;99.90;;;;;;5065482;28;19924;-77
2022/04/26 15:38:10;;;;;;;;;;;10.00;99.90;;;;;;5066158;28;20014;-77
2022/04/26 15:40:37;;;;;;;;;;;10.00;99.90;;;;;;5068056;28;20289;-80
2022/04/26 15:43:04;;;;;;;;;;;10.10;99.90;;;;;;5064643;28;19946;-79
2022/04/26 15:45:31;;;;;;;;;;;10.00;99.90;;;;;;5061642;28;19932;-78
2022/04/26 15:47:58;;;;;;;;;;;10.00;99.90;;;;;;5058207;28;19966;-79
2022/04/26 15:50:28;;;;;;;;;;;10.00;99.90;;;;;;5057691;28;20679;-79
2022/04/26 15:52:55;;;;;;;;;;;9.90;99.90;;;;;;5064449;28;19924;-80
2022/04/26 15:55:22;;;;;;;;;;;9.80;99.90;;;;;;5066727;28;19924;-79
2022/04/26 15:57:50;;;;;;;;;;;9.70;99.90;;;;;;5066935;28;19928;-80
2022/04/26 16:00:18;;;;;;;;;;;9.70;99.90;;;;;;5062176;28;19932;-77
2022/04/26 16:02:47;;;;;;;;;;;9.70;99.90;;;;;;5064412;28;19962;-77
2022/04/26 16:05:14;;;;;;;;;;;9.90;99.90;;;;;;5066224;28;20382;-78
2022/04/26 16:07:41;;;;;;;;;;;10.00;99.90;;;;;;5061461;28;19951;-77
2022/04/26 16:21:11;;;;;;;;;;;10.00;99.90;;;;;;5062381;28;19931;-75
2022/04/26 16:23:38;;;;;;;;;;;10.00;99.90;;;;;;5056993;28;19933;-75
2022/04/26 16:26:06;;;;;;;;;;;9.90;99.90;;;;;;5059191;28;19970;-75
2022/04/26 16:28:33;;;;;;;;;;;9.80;99.90;;;;;;5060303;28;20023;-75
2022/04/26 16:31:00;;;;;;;;;;;9.60;99.90;;;;;;5055482;28;19928;-73
2022/04/26 16:33:27;;;;;;;;;;;9.40;99.90;;;;;;5060860;28;19963;-74
2022/04/26 16:35:54;;;;;;;;;;;9.30;99.90;;;;;;5060580;28;20084;-74
2022/04/26 16:38:21;;;;;;;;;;;9.10;99.90;;;;;;5064381;28;19970;-74
2022/04/26 16:40:48;;;;;;;;;;;9.10;99.90;;;;;;5064459;28;19924;-74
2022/04/26 16:43:16;;;;;;;;;;;9.00;99.90;;;;;;5059525;28;20288;-74
2022/04/26 16:45:43;;;;;;;;;;;8.90;99.90;;;;;;5062519;28;19924;-74
2022/04/26 16:48:10;;;;;;;;;;;8.90;99.90;;;;;;5062493;28;19924;-75
2022/04/26 16:50:36;;;;;;;;;;;8.80;99.90;;;;;;5064465;28;19924;-74
2022/04/26 16:53:04;;;;;;;;;;;8.80;99.90;;;;;;5060451;28;19932;-74
2022/04/26 16:55:31;;;;;;;;;;;8.80;99.90;;;;;;5062322;28;19924;-75
2022/04/26 16:57:58;;;;;;;;;;;8.80;99.90;;;;;;5063985;28;20381;-75
2022/04/26 17:00:26;;;;;;;;;;;8.90;99.90;;;;;;5074800;28;19924;-75
2022/04/26 17:02:53;;;;;;;;;;;9.00;99.90;;;;;;5060584;28;20288;-75
2022/04/26 17:05:21;;;;;;;;;;;9.10;99.90;;;;;;5063908;28;20470;-75
2022/04/26 17:07:50;;;;;;;;;;;9.20;99.90;;;;;;5058819;28;19978;-75
2022/04/26 17:10:18;;;;;;;;;;;9.30;99.90;;;;;;5059844;28;19928;-75
2022/04/26 17:12:49;;;;;;;;;;;9.40;99.90;;;;;;5053678;28;19924;-74
2022/04/26 17:15:19;;;;;;;;;;;9.50;99.90;;;;;;5057057;28;19925;-75
2022/04/26 17:17:46;;;;;;;;;;;9.60;99.90;;;;;;5061254;28;19925;-75
2022/04/26 17:20:14;;;;;;;;;;;9.70;99.90;;;;;;5061555;28;19932;-74
2022/04/26 17:22:41;;;;;;;;;;;9.80;99.90;;;;;;5066394;28;20497;-74
2022/04/26 17:25:14;;;;;;;;;;;9.80;99.90;;;;;;5061954;28;20023;-75
2022/04/26 17:28:01;;;;;;;;;;;9.80;99.90;;;;;;5067793;28;19955;-75
2022/04/26 17:30:28;;;;;;;;;;;9.80;99.90;;;;;;5063979;28;20413;-75
2022/04/26 17:32:55;;;;;;;;;;;9.80;99.90;;;;;;5062871;28;20019;-74
2022/04/26 17:35:21;;;;;;;;;;;9.70;99.90;;;;;;5062104;28;19928;-75
2022/04/26 17:37:49;;;;;;;;;;;9.60;99.90;;;;;;5064593;28;19935;-75
2022/04/26 17:40:16;;;;;;;;;;;9.50;99.90;;;;;;5059521;28;19933;-74
2022/04/26 17:42:43;;;;;;;;;;;9.40;99.90;;;;;;5056319;28;19962;-74
2022/04/26 17:45:09;;;;;;;;;;;9.30;99.90;;;;;;5064010;28;20135;-74
2022/04/26 17:47:36;;;;;;;;;;;9.20;99.90;;;;;;5059410;28;20028;-74
2022/04/26 17:50:07;;;;;;;;;;;9.00;99.90;;;;;;5062393;28;19928;-75
2022/04/26 17:56:28;;;;;;;;;;;8.80;99.90;;;;;;5063772;28;20355;-75
2022/04/26 17:58:13;;;;;;;;;;;8.40;99.90;;;;;;5062137;28;20276;-75
2022/04/26 18:00:40;;;;;;;;;;;8.20;99.90;;;;;;5066802;28;19936;-75
2022/04/26 18:03:06;;;;;;;;;;;8.20;99.90;;;;;;5069693;28;19960;-74
2022/04/26 18:05:33;;;;;;;;;;;8.00;99.90;;;;;;5058220;28;19943;-75
2022/04/26 18:08:00;;;;;;;;;;;8.00;99.90;;;;;;5066323;28;19932;-74
2022/04/26 18:10:28;;;;;;;;;;;7.80;99.90;;;;;;5059744;28;19925;-74
2022/04/26 18:12:54;;;;;;;;;;;7.80;99.90;;;;;;5063331;28;19928;-74
2022/04/26 18:15:21;;;;;;;;;;;7.70;99.90;;;;;;5063780;28;20178;-74
2022/04/26 18:17:48;;;;;;;;;;;7.60;99.90;;;;;;5063311;28;19932;-74
2022/04/26 18:20:15;;;;;;;;;;;7.60;99.90;;;;;;5054599;28;20018;-74
2022/04/26 18:22:49;;;;;;;;;;;7.60;99.90;;;;;;5058692;28;19972;-74
2022/04/26 18:26:10;;;;;;;;;;;7.60;99.90;;;;;;5059623;28;20379;-74
2022/04/26 18:28:02;;;;;;;;;;;7.50;99.90;;;;;;5054936;28;20043;-75
2022/04/26 18:30:29;;;;;;;;;;;7.50;99.90;;;;;;5054877;28;19929;-75
2022/04/26 18:32:56;;;;;;;;;;;7.50;99.90;;;;;;5051243;28;19932;-75
2022/04/26 18:35:23;;;;;;;;;;;7.50;99.90;;;;;;5053039;28;20589;-76
2022/04/26 18:37:49;;;;;;;;;;;7.40;99.90;;;;;;5051374;28;20424;-75
2022/04/26 18:40:17;;;;;;;;;;;7.50;99.90;;;;;;5064201;28;19932;-75
2022/04/26 18:42:43;;;;;;;;;;;7.40;99.90;;;;;;5065095;28;19935;-75
2022/04/26 18:45:10;;;;;;;;;;;7.40;99.90;;;;;;5061009;28;19935;-75
2022/04/26 18:47:37;;;;;;;;;;;7.40;99.90;;;;;;5060385;28;19929;-75
2022/04/26 18:50:04;;;;;;;;;;;7.40;99.90;;;;;;5054562;28;20467;-75
2022/04/26 18:52:30;;;;;;;;;;;7.30;99.90;;;;;;5051401;28;19952;-75
2022/04/26 18:54:57;;;;;;;;;;;7.30;99.90;;;;;;5053751;28;19925;-76
2022/04/26 18:57:25;;;;;;;;;;;7.30;99.90;;;;;;5065741;28;19997;-76
2022/04/26 18:59:52;;;;;;;;;;;7.30;99.90;;;;;;5061208;28;19924;-75
2022/04/26 19:02:19;;;;;;;;;;;7.30;99.90;;;;;;5063079;28;19925;-76
2022/04/26 19:04:46;;;;;;;;;;;7.20;99.90;;;;;;5064339;28;19928;-75